sensor_id;sensor_type;location;lat;lon;timestamp;P1;durP1;ratioP1;P2;durP2;ratioP2
82722;SDS011;72450;42.008;21.356;2024-01-30T00:00:08;11.38;;;7.03;;
82722;SDS011;72450;42.008;21.356;2024-01-30T00:02:34;13.20;;;6.65;;
82722;SDS011;72450;42.008;21.356;2024-01-30T00:05:00;13.70;;;8.18;;
82722;SDS011;72450;42.008;21.356;2024-01-30T00:07:28;13.63;;;8.30;;
82722;SDS011;72450;42.008;21.356;2024-01-30T00:09:54;14.23;;;8.23;;
82722;SDS011;72450;42.008;21.356;2024-01-30T00:12:20;15.18;;;8.73;;
82722;SDS011;72450;42.008;21.356;2024-01-30T00:14:46;14.48;;;8.40;;
82722;SDS011;72450;42.008;21.356;2024-01-30T00:17:13;14.38;;;7.03;;
82722;SDS011;72450;42.008;21.356;2024-01-30T00:19:39;10.93;;;6.68;;
82722;SDS011;72450;42.008;21.356;2024-01-30T00:22:05;14.88;;;8.57;;
82722;SDS011;72450;42.008;21.356;2024-01-30T00:24:32;17.90;;;7.78;;
82722;SDS011;72450;42.008;21.356;2024-01-30T00:26:58;15.48;;;9.48;;
82722;SDS011;72450;42.008;21.356;2024-01-30T00:29:24;16.38;;;8.35;;
82722;SDS011;72450;42.008;21.356;2024-01-30T00:31:55;17.20;;;8.88;;
82722;SDS011;72450;42.008;21.356;2024-01-30T00:34:21;17.33;;;10.35;;
82722;SDS011;72450;42.008;21.356;2024-01-30T00:36:47;17.90;;;9.05;;
82722;SDS011;72450;42.008;21.356;2024-01-30T00:39:13;17.10;;;8.90;;
82722;SDS011;72450;42.008;21.356;2024-01-30T00:41:40;16.55;;;8.73;;
82722;SDS011;72450;42.008;21.356;2024-01-30T00:44:07;14.75;;;7.57;;
82722;SDS011;72450;42.008;21.356;2024-01-30T00:46:33;13.57;;;8.18;;
82722;SDS011;72450;42.008;21.356;2024-01-30T00:48:59;12.98;;;7.50;;
82722;SDS011;72450;42.008;21.356;2024-01-30T00:51:25;14.93;;;8.48;;
82722;SDS011;72450;42.008;21.356;2024-01-30T00:53:51;17.73;;;10.60;;
82722;SDS011;72450;42.008;21.356;2024-01-30T00:56:17;21.45;;;11.35;;
82722;SDS011;72450;42.008;21.356;2024-01-30T00:58:43;41.53;;;19.48;;
82722;SDS011;72450;42.008;21.356;2024-01-30T01:01:10;30.10;;;14.38;;
82722;SDS011;72450;42.008;21.356;2024-01-30T01:03:36;28.30;;;14.38;;
82722;SDS011;72450;42.008;21.356;2024-01-30T01:06:02;27.05;;;12.05;;
82722;SDS011;72450;42.008;21.356;2024-01-30T01:08:28;31.88;;;15.30;;
82722;SDS011;72450;42.008;21.356;2024-01-30T01:10:54;29.50;;;14.40;;
82722;SDS011;72450;42.008;21.356;2024-01-30T01:13:20;28.67;;;15.70;;
82722;SDS011;72450;42.008;21.356;2024-01-30T01:15:46;23.88;;;11.52;;
82722;SDS011;72450;42.008;21.356;2024-01-30T01:18:12;21.52;;;12.07;;
82722;SDS011;72450;42.008;21.356;2024-01-30T01:20:38;26.63;;;14.77;;
82722;SDS011;72450;42.008;21.356;2024-01-30T01:23:04;38.95;;;19.50;;
82722;SDS011;72450;42.008;21.356;2024-01-30T01:25:30;33.65;;;16.27;;
82722;SDS011;72450;42.008;21.356;2024-01-30T01:27:56;25.02;;;13.15;;
82722;SDS011;72450;42.008;21.356;2024-01-30T01:30:23;23.60;;;11.88;;
82722;SDS011;72450;42.008;21.356;2024-01-30T01:32:50;16.77;;;8.52;;
82722;SDS011;72450;42.008;21.356;2024-01-30T01:35:27;15.77;;;7.57;;
82722;SDS011;72450;42.008;21.356;2024-01-30T01:37:53;18.48;;;9.38;;
82722;SDS011;72450;42.008;21.356;2024-01-30T01:40:23;26.17;;;13.93;;
82722;SDS011;72450;42.008;21.356;2024-01-30T01:42:50;26.88;;;12.35;;
82722;SDS011;72450;42.008;21.356;2024-01-30T01:45:17;26.52;;;14.90;;
82722;SDS011;72450;42.008;21.356;2024-01-30T01:47:43;20.17;;;11.85;;
82722;SDS011;72450;42.008;21.356;2024-01-30T01:50:11;28.77;;;15.25;;
82722;SDS011;72450;42.008;21.356;2024-01-30T01:52:38;22.38;;;11.65;;
82722;SDS011;72450;42.008;21.356;2024-01-30T01:55:05;20.50;;;10.52;;
82722;SDS011;72450;42.008;21.356;2024-01-30T01:57:31;25.17;;;12.63;;
82722;SDS011;72450;42.008;21.356;2024-01-30T01:59:57;19.40;;;10.75;;
82722;SDS011;72450;42.008;21.356;2024-01-30T02:02:24;23.08;;;10.75;;
82722;SDS011;72450;42.008;21.356;2024-01-30T02:04:50;15.02;;;7.15;;
82722;SDS011;72450;42.008;21.356;2024-01-30T02:07:17;18.75;;;10.63;;
82722;SDS011;72450;42.008;21.356;2024-01-30T02:09:43;26.38;;;13.95;;
82722;SDS011;72450;42.008;21.356;2024-01-30T02:12:09;26.33;;;12.23;;
82722;SDS011;72450;42.008;21.356;2024-01-30T02:14:43;20.67;;;10.05;;
82722;SDS011;72450;42.008;21.356;2024-01-30T02:17:10;25.13;;;11.75;;
82722;SDS011;72450;42.008;21.356;2024-01-30T02:19:36;18.77;;;10.52;;
82722;SDS011;72450;42.008;21.356;2024-01-30T02:22:02;22.45;;;11.07;;
82722;SDS011;72450;42.008;21.356;2024-01-30T02:24:28;18.25;;;10.15;;
82722;SDS011;72450;42.008;21.356;2024-01-30T02:26:54;22.20;;;11.40;;
82722;SDS011;72450;42.008;21.356;2024-01-30T02:29:21;22.70;;;11.45;;
82722;SDS011;72450;42.008;21.356;2024-01-30T02:31:47;22.42;;;12.27;;
82722;SDS011;72450;42.008;21.356;2024-01-30T02:34:13;21.33;;;11.50;;
82722;SDS011;72450;42.008;21.356;2024-01-30T02:36:42;23.70;;;12.95;;
82722;SDS011;72450;42.008;21.356;2024-01-30T02:39:08;26.40;;;15.88;;
82722;SDS011;72450;42.008;21.356;2024-01-30T02:41:34;23.33;;;12.38;;
82722;SDS011;72450;42.008;21.356;2024-01-30T02:44:01;21.42;;;11.27;;
82722;SDS011;72450;42.008;21.356;2024-01-30T02:46:27;20.58;;;12.18;;
82722;SDS011;72450;42.008;21.356;2024-01-30T02:48:53;19.92;;;11.05;;
82722;SDS011;72450;42.008;21.356;2024-01-30T02:51:19;20.27;;;9.80;;
82722;SDS011;72450;42.008;21.356;2024-01-30T02:53:45;18.52;;;11.18;;
82722;SDS011;72450;42.008;21.356;2024-01-30T02:56:11;16.30;;;10.43;;
82722;SDS011;72450;42.008;21.356;2024-01-30T02:58:38;20.20;;;9.85;;
82722;SDS011;72450;42.008;21.356;2024-01-30T03:01:05;18.13;;;10.32;;
82722;SDS011;72450;42.008;21.356;2024-01-30T03:03:31;23.63;;;11.20;;
82722;SDS011;72450;42.008;21.356;2024-01-30T03:05:57;15.50;;;9.18;;
82722;SDS011;72450;42.008;21.356;2024-01-30T03:08:23;18.35;;;10.95;;
82722;SDS011;72450;42.008;21.356;2024-01-30T03:10:49;18.30;;;10.65;;
82722;SDS011;72450;42.008;21.356;2024-01-30T03:13:15;17.33;;;11.35;;
82722;SDS011;72450;42.008;21.356;2024-01-30T03:15:41;18.42;;;9.65;;
82722;SDS011;72450;42.008;21.356;2024-01-30T03:18:07;18.85;;;11.13;;
82722;SDS011;72450;42.008;21.356;2024-01-30T03:20:33;19.27;;;10.52;;
82722;SDS011;72450;42.008;21.356;2024-01-30T03:23:00;22.50;;;10.45;;
82722;SDS011;72450;42.008;21.356;2024-01-30T03:25:26;19.45;;;11.05;;
82722;SDS011;72450;42.008;21.356;2024-01-30T03:27:52;18.65;;;10.65;;
82722;SDS011;72450;42.008;21.356;2024-01-30T03:30:18;18.50;;;10.02;;
82722;SDS011;72450;42.008;21.356;2024-01-30T03:32:44;9.02;;;4.93;;
82722;SDS011;72450;42.008;21.356;2024-01-30T03:35:10;16.13;;;9.45;;
82722;SDS011;72450;42.008;21.356;2024-01-30T03:37:36;16.08;;;9.25;;
82722;SDS011;72450;42.008;21.356;2024-01-30T03:40:02;17.50;;;9.70;;
82722;SDS011;72450;42.008;21.356;2024-01-30T03:42:29;18.77;;;8.43;;
82722;SDS011;72450;42.008;21.356;2024-01-30T03:44:56;17.08;;;9.38;;
82722;SDS011;72450;42.008;21.356;2024-01-30T03:47:22;18.98;;;10.00;;
82722;SDS011;72450;42.008;21.356;2024-01-30T03:49:48;18.40;;;10.02;;
82722;SDS011;72450;42.008;21.356;2024-01-30T03:52:14;14.60;;;8.85;;
82722;SDS011;72450;42.008;21.356;2024-01-30T03:54:40;21.92;;;12.43;;
82722;SDS011;72450;42.008;21.356;2024-01-30T03:57:06;18.75;;;9.98;;
82722;SDS011;72450;42.008;21.356;2024-01-30T03:59:32;20.15;;;9.70;;
82722;SDS011;72450;42.008;21.356;2024-01-30T04:01:59;21.25;;;10.73;;
82722;SDS011;72450;42.008;21.356;2024-01-30T04:04:25;17.50;;;10.70;;
82722;SDS011;72450;42.008;21.356;2024-01-30T04:06:51;24.20;;;11.35;;
82722;SDS011;72450;42.008;21.356;2024-01-30T04:09:17;17.55;;;9.98;;
82722;SDS011;72450;42.008;21.356;2024-01-30T04:11:43;24.15;;;12.85;;
82722;SDS011;72450;42.008;21.356;2024-01-30T04:14:10;25.33;;;13.10;;
82722;SDS011;72450;42.008;21.356;2024-01-30T04:16:36;32.97;;;13.85;;
82722;SDS011;72450;42.008;21.356;2024-01-30T04:19:02;24.85;;;12.85;;
82722;SDS011;72450;42.008;21.356;2024-01-30T04:21:28;21.67;;;11.88;;
82722;SDS011;72450;42.008;21.356;2024-01-30T04:23:54;21.52;;;12.48;;
82722;SDS011;72450;42.008;21.356;2024-01-30T04:26:20;20.52;;;13.25;;
82722;SDS011;72450;42.008;21.356;2024-01-30T04:28:46;20.52;;;12.80;;
82722;SDS011;72450;42.008;21.356;2024-01-30T04:31:12;19.02;;;12.02;;
82722;SDS011;72450;42.008;21.356;2024-01-30T04:33:38;22.13;;;11.05;;
82722;SDS011;72450;42.008;21.356;2024-01-30T04:36:07;20.63;;;11.68;;
82722;SDS011;72450;42.008;21.356;2024-01-30T04:38:35;22.48;;;9.93;;
82722;SDS011;72450;42.008;21.356;2024-01-30T04:41:01;18.90;;;10.15;;
82722;SDS011;72450;42.008;21.356;2024-01-30T04:43:27;16.13;;;10.00;;
82722;SDS011;72450;42.008;21.356;2024-01-30T04:45:53;16.35;;;10.18;;
82722;SDS011;72450;42.008;21.356;2024-01-30T04:48:19;16.73;;;9.77;;
82722;SDS011;72450;42.008;21.356;2024-01-30T04:50:45;18.15;;;10.73;;
82722;SDS011;72450;42.008;21.356;2024-01-30T04:53:11;19.92;;;10.75;;
82722;SDS011;72450;42.008;21.356;2024-01-30T04:55:37;18.35;;;9.20;;
82722;SDS011;72450;42.008;21.356;2024-01-30T04:58:03;18.58;;;10.60;;
82722;SDS011;72450;42.008;21.356;2024-01-30T05:00:29;17.58;;;10.48;;
82722;SDS011;72450;42.008;21.356;2024-01-30T05:02:55;19.52;;;11.02;;
82722;SDS011;72450;42.008;21.356;2024-01-30T05:05:22;25.23;;;12.13;;
82722;SDS011;72450;42.008;21.356;2024-01-30T05:07:48;23.73;;;12.77;;
82722;SDS011;72450;42.008;21.356;2024-01-30T05:10:14;29.17;;;13.65;;
82722;SDS011;72450;42.008;21.356;2024-01-30T05:12:41;27.10;;;13.50;;
82722;SDS011;72450;42.008;21.356;2024-01-30T05:15:07;22.73;;;13.00;;
82722;SDS011;72450;42.008;21.356;2024-01-30T05:17:33;25.80;;;13.18;;
82722;SDS011;72450;42.008;21.356;2024-01-30T05:19:59;37.08;;;17.60;;
82722;SDS011;72450;42.008;21.356;2024-01-30T05:22:25;27.77;;;15.32;;
82722;SDS011;72450;42.008;21.356;2024-01-30T05:24:51;27.90;;;15.20;;
82722;SDS011;72450;42.008;21.356;2024-01-30T05:27:17;30.48;;;15.65;;
82722;SDS011;72450;42.008;21.356;2024-01-30T05:29:43;28.25;;;15.30;;
82722;SDS011;72450;42.008;21.356;2024-01-30T05:32:10;26.92;;;13.15;;
82722;SDS011;72450;42.008;21.356;2024-01-30T05:34:37;24.50;;;13.35;;
82722;SDS011;72450;42.008;21.356;2024-01-30T05:37:03;22.58;;;13.20;;
82722;SDS011;72450;42.008;21.356;2024-01-30T05:39:29;21.50;;;10.82;;
82722;SDS011;72450;42.008;21.356;2024-01-30T05:41:57;16.77;;;9.73;;
82722;SDS011;72450;42.008;21.356;2024-01-30T05:44:24;16.88;;;10.35;;
82722;SDS011;72450;42.008;21.356;2024-01-30T05:46:50;19.50;;;10.45;;
82722;SDS011;72450;42.008;21.356;2024-01-30T05:49:16;17.05;;;9.70;;
82722;SDS011;72450;42.008;21.356;2024-01-30T05:51:42;22.65;;;12.55;;
82722;SDS011;72450;42.008;21.356;2024-01-30T05:54:08;24.13;;;9.77;;
82722;SDS011;72450;42.008;21.356;2024-01-30T05:56:34;30.48;;;12.50;;
82722;SDS011;72450;42.008;21.356;2024-01-30T05:59:00;20.35;;;10.45;;
82722;SDS011;72450;42.008;21.356;2024-01-30T06:01:26;27.92;;;14.73;;
82722;SDS011;72450;42.008;21.356;2024-01-30T06:03:52;28.15;;;15.02;;
82722;SDS011;72450;42.008;21.356;2024-01-30T06:06:18;28.20;;;15.52;;
82722;SDS011;72450;42.008;21.356;2024-01-30T06:08:44;27.27;;;15.00;;
82722;SDS011;72450;42.008;21.356;2024-01-30T06:11:10;28.92;;;16.00;;
82722;SDS011;72450;42.008;21.356;2024-01-30T06:13:37;37.95;;;18.98;;
82722;SDS011;72450;42.008;21.356;2024-01-30T06:16:03;31.83;;;16.13;;
82722;SDS011;72450;42.008;21.356;2024-01-30T06:18:31;24.95;;;14.60;;
82722;SDS011;72450;42.008;21.356;2024-01-30T06:20:57;30.60;;;16.55;;
82722;SDS011;72450;42.008;21.356;2024-01-30T06:23:23;34.92;;;16.83;;
82722;SDS011;72450;42.008;21.356;2024-01-30T06:25:49;34.45;;;17.67;;
82722;SDS011;72450;42.008;21.356;2024-01-30T06:28:15;31.35;;;17.25;;
82722;SDS011;72450;42.008;21.356;2024-01-30T06:30:41;37.40;;;19.77;;
82722;SDS011;72450;42.008;21.356;2024-01-30T06:33:07;30.20;;;15.15;;
82722;SDS011;72450;42.008;21.356;2024-01-30T06:35:33;33.72;;;16.85;;
82722;SDS011;72450;42.008;21.356;2024-01-30T06:38:01;30.77;;;16.40;;
82722;SDS011;72450;42.008;21.356;2024-01-30T06:40:27;32.95;;;17.42;;
82722;SDS011;72450;42.008;21.356;2024-01-30T06:42:53;29.50;;;16.85;;
82722;SDS011;72450;42.008;21.356;2024-01-30T06:45:19;47.78;;;21.02;;
82722;SDS011;72450;42.008;21.356;2024-01-30T06:47:45;43.00;;;19.95;;
82722;SDS011;72450;42.008;21.356;2024-01-30T06:50:11;45.65;;;21.08;;
82722;SDS011;72450;42.008;21.356;2024-01-30T06:52:37;55.53;;;23.65;;
82722;SDS011;72450;42.008;21.356;2024-01-30T06:55:04;54.72;;;23.70;;
82722;SDS011;72450;42.008;21.356;2024-01-30T06:57:30;56.47;;;21.55;;
82722;SDS011;72450;42.008;21.356;2024-01-30T06:59:56;33.53;;;18.08;;
82722;SDS011;72450;42.008;21.356;2024-01-30T07:02:22;50.13;;;23.50;;
82722;SDS011;72450;42.008;21.356;2024-01-30T07:04:48;49.72;;;23.65;;
82722;SDS011;72450;42.008;21.356;2024-01-30T07:07:14;55.22;;;26.85;;
82722;SDS011;72450;42.008;21.356;2024-01-30T07:09:41;67.82;;;27.65;;
82722;SDS011;72450;42.008;21.356;2024-01-30T07:12:07;44.80;;;20.00;;
82722;SDS011;72450;42.008;21.356;2024-01-30T07:14:33;44.85;;;24.42;;
82722;SDS011;72450;42.008;21.356;2024-01-30T07:17:00;53.50;;;26.13;;
82722;SDS011;72450;42.008;21.356;2024-01-30T07:19:26;43.40;;;20.52;;
82722;SDS011;72450;42.008;21.356;2024-01-30T07:21:52;36.05;;;20.52;;
82722;SDS011;72450;42.008;21.356;2024-01-30T07:24:18;35.15;;;17.65;;
82722;SDS011;72450;42.008;21.356;2024-01-30T07:26:44;29.02;;;17.70;;
82722;SDS011;72450;42.008;21.356;2024-01-30T07:29:11;28.25;;;14.70;;
82722;SDS011;72450;42.008;21.356;2024-01-30T07:31:37;30.73;;;15.23;;
82722;SDS011;72450;42.008;21.356;2024-01-30T07:34:03;27.60;;;15.95;;
82722;SDS011;72450;42.008;21.356;2024-01-30T07:36:29;26.02;;;14.75;;
82722;SDS011;72450;42.008;21.356;2024-01-30T07:38:55;25.60;;;14.07;;
82722;SDS011;72450;42.008;21.356;2024-01-30T07:41:21;20.08;;;10.63;;
82722;SDS011;72450;42.008;21.356;2024-01-30T07:43:48;20.13;;;11.20;;
82722;SDS011;72450;42.008;21.356;2024-01-30T07:46:14;14.88;;;7.47;;
82722;SDS011;72450;42.008;21.356;2024-01-30T07:48:40;12.90;;;6.25;;
82722;SDS011;72450;42.008;21.356;2024-01-30T07:51:06;9.77;;;6.72;;
82722;SDS011;72450;42.008;21.356;2024-01-30T07:53:32;12.07;;;7.82;;
82722;SDS011;72450;42.008;21.356;2024-01-30T07:55:58;14.27;;;7.53;;
82722;SDS011;72450;42.008;21.356;2024-01-30T07:58:24;9.65;;;6.28;;
82722;SDS011;72450;42.008;21.356;2024-01-30T08:00:52;12.45;;;7.65;;
82722;SDS011;72450;42.008;21.356;2024-01-30T08:03:18;14.00;;;6.75;;
82722;SDS011;72450;42.008;21.356;2024-01-30T08:05:44;9.05;;;6.10;;
82722;SDS011;72450;42.008;21.356;2024-01-30T08:08:10;16.15;;;9.18;;
82722;SDS011;72450;42.008;21.356;2024-01-30T08:10:36;10.98;;;7.43;;
82722;SDS011;72450;42.008;21.356;2024-01-30T08:13:03;12.65;;;6.80;;
82722;SDS011;72450;42.008;21.356;2024-01-30T08:15:29;12.55;;;7.72;;
82722;SDS011;72450;42.008;21.356;2024-01-30T08:17:55;9.80;;;6.38;;
82722;SDS011;72450;42.008;21.356;2024-01-30T08:20:25;9.82;;;5.05;;
82722;SDS011;72450;42.008;21.356;2024-01-30T08:22:51;10.13;;;6.05;;
82722;SDS011;72450;42.008;21.356;2024-01-30T08:25:17;16.33;;;9.80;;
82722;SDS011;72450;42.008;21.356;2024-01-30T08:27:44;12.20;;;7.35;;
82722;SDS011;72450;42.008;21.356;2024-01-30T08:30:10;10.25;;;6.78;;
82722;SDS011;72450;42.008;21.356;2024-01-30T08:32:36;4.78;;;3.38;;
82722;SDS011;72450;42.008;21.356;2024-01-30T08:35:02;11.77;;;5.85;;
82722;SDS011;72450;42.008;21.356;2024-01-30T08:37:29;10.98;;;5.72;;
82722;SDS011;72450;42.008;21.356;2024-01-30T08:39:55;10.75;;;6.68;;
82722;SDS011;72450;42.008;21.356;2024-01-30T08:42:21;6.80;;;4.35;;
82722;SDS011;72450;42.008;21.356;2024-01-30T08:44:48;7.72;;;4.45;;
82722;SDS011;72450;42.008;21.356;2024-01-30T08:47:16;7.97;;;4.93;;
82722;SDS011;72450;42.008;21.356;2024-01-30T08:49:43;9.25;;;5.43;;
82722;SDS011;72450;42.008;21.356;2024-01-30T08:52:12;6.65;;;3.83;;
82722;SDS011;72450;42.008;21.356;2024-01-30T08:54:38;9.07;;;5.25;;
82722;SDS011;72450;42.008;21.356;2024-01-30T08:57:05;7.47;;;3.63;;
82722;SDS011;72450;42.008;21.356;2024-01-30T08:59:31;4.07;;;2.72;;
82722;SDS011;72450;42.008;21.356;2024-01-30T09:01:57;7.97;;;4.68;;
82722;SDS011;72450;42.008;21.356;2024-01-30T09:04:24;12.27;;;5.38;;
82722;SDS011;72450;42.008;21.356;2024-01-30T09:06:50;8.98;;;6.35;;
82722;SDS011;72450;42.008;21.356;2024-01-30T09:09:16;9.15;;;5.00;;
82722;SDS011;72450;42.008;21.356;2024-01-30T09:11:43;7.65;;;4.20;;
82722;SDS011;72450;42.008;21.356;2024-01-30T09:14:09;3.83;;;1.73;;
82722;SDS011;72450;42.008;21.356;2024-01-30T09:16:35;8.40;;;5.03;;
82722;SDS011;72450;42.008;21.356;2024-01-30T09:19:01;6.28;;;4.63;;
82722;SDS011;72450;42.008;21.356;2024-01-30T09:21:27;10.05;;;6.50;;
82722;SDS011;72450;42.008;21.356;2024-01-30T09:24:01;6.63;;;4.13;;
82722;SDS011;72450;42.008;21.356;2024-01-30T09:26:29;11.43;;;7.47;;
82722;SDS011;72450;42.008;21.356;2024-01-30T09:28:55;13.30;;;7.68;;
82722;SDS011;72450;42.008;21.356;2024-01-30T09:31:21;6.78;;;4.65;;
82722;SDS011;72450;42.008;21.356;2024-01-30T09:33:47;10.35;;;5.32;;
82722;SDS011;72450;42.008;21.356;2024-01-30T09:36:14;9.30;;;4.80;;
82722;SDS011;72450;42.008;21.356;2024-01-30T09:38:43;10.30;;;6.20;;
82722;SDS011;72450;42.008;21.356;2024-01-30T09:41:09;9.18;;;5.63;;
82722;SDS011;72450;42.008;21.356;2024-01-30T09:43:36;5.88;;;4.03;;
82722;SDS011;72450;42.008;21.356;2024-01-30T09:46:04;9.13;;;5.88;;
82722;SDS011;72450;42.008;21.356;2024-01-30T09:50:57;7.82;;;4.13;;
82722;SDS011;72450;42.008;21.356;2024-01-30T09:53:23;6.25;;;4.88;;
82722;SDS011;72450;42.008;21.356;2024-01-30T09:55:49;14.10;;;6.65;;
82722;SDS011;72450;42.008;21.356;2024-01-30T09:58:16;6.32;;;4.65;;
82722;SDS011;72450;42.008;21.356;2024-01-30T10:00:42;8.40;;;5.00;;
82722;SDS011;72450;42.008;21.356;2024-01-30T10:03:08;8.15;;;5.50;;
82722;SDS011;72450;42.008;21.356;2024-01-30T10:05:35;9.45;;;5.45;;
82722;SDS011;72450;42.008;21.356;2024-01-30T10:08:07;8.55;;;4.53;;
82722;SDS011;72450;42.008;21.356;2024-01-30T10:10:33;5.85;;;4.15;;
82722;SDS011;72450;42.008;21.356;2024-01-30T10:13:00;11.55;;;4.75;;
82722;SDS011;72450;42.008;21.356;2024-01-30T10:15:27;7.47;;;4.40;;
82722;SDS011;72450;42.008;21.356;2024-01-30T10:17:54;7.30;;;5.03;;
82722;SDS011;72450;42.008;21.356;2024-01-30T10:20:20;4.45;;;2.45;;
82722;SDS011;72450;42.008;21.356;2024-01-30T10:22:47;9.52;;;4.65;;
82722;SDS011;72450;42.008;21.356;2024-01-30T10:25:14;27.13;;;10.70;;
82722;SDS011;72450;42.008;21.356;2024-01-30T10:27:40;7.40;;;4.50;;
82722;SDS011;72450;42.008;21.356;2024-01-30T10:30:07;10.05;;;4.95;;
82722;SDS011;72450;42.008;21.356;2024-01-30T10:32:33;5.53;;;3.83;;
82722;SDS011;72450;42.008;21.356;2024-01-30T10:34:59;5.47;;;3.50;;
82722;SDS011;72450;42.008;21.356;2024-01-30T10:37:25;6.38;;;3.92;;
82722;SDS011;72450;42.008;21.356;2024-01-30T10:39:52;4.75;;;3.30;;
82722;SDS011;72450;42.008;21.356;2024-01-30T10:42:22;6.97;;;3.80;;
82722;SDS011;72450;42.008;21.356;2024-01-30T10:47:21;4.57;;;2.92;;
82722;SDS011;72450;42.008;21.356;2024-01-30T10:49:51;5.57;;;3.40;;
82722;SDS011;72450;42.008;21.356;2024-01-30T10:52:18;5.65;;;3.40;;
82722;SDS011;72450;42.008;21.356;2024-01-30T10:54:44;7.88;;;3.53;;
82722;SDS011;72450;42.008;21.356;2024-01-30T10:57:11;8.35;;;4.85;;
82722;SDS011;72450;42.008;21.356;2024-01-30T10:59:38;8.68;;;5.30;;
82722;SDS011;72450;42.008;21.356;2024-01-30T11:02:04;7.85;;;5.65;;
82722;SDS011;72450;42.008;21.356;2024-01-30T11:04:37;7.55;;;5.13;;
82722;SDS011;72450;42.008;21.356;2024-01-30T11:09:49;9.40;;;5.07;;
82722;SDS011;72450;42.008;21.356;2024-01-30T11:12:16;5.05;;;3.65;;
82722;SDS011;72450;42.008;21.356;2024-01-30T11:14:42;16.40;;;7.72;;
82722;SDS011;72450;42.008;21.356;2024-01-30T11:17:09;7.78;;;4.70;;
82722;SDS011;72450;42.008;21.356;2024-01-30T11:19:37;7.13;;;4.65;;
82722;SDS011;72450;42.008;21.356;2024-01-30T11:22:06;4.78;;;3.38;;
82722;SDS011;72450;42.008;21.356;2024-01-30T11:24:39;6.05;;;4.15;;
82722;SDS011;72450;42.008;21.356;2024-01-30T11:27:07;7.72;;;4.72;;
82722;SDS011;72450;42.008;21.356;2024-01-30T11:29:34;7.32;;;4.68;;
82722;SDS011;72450;42.008;21.356;2024-01-30T11:32:01;6.13;;;4.35;;
82722;SDS011;72450;42.008;21.356;2024-01-30T11:34:27;7.22;;;4.78;;
82722;SDS011;72450;42.008;21.356;2024-01-30T11:36:57;4.68;;;3.30;;
82722;SDS011;72450;42.008;21.356;2024-01-30T11:39:27;6.70;;;4.68;;
82722;SDS011;72450;42.008;21.356;2024-01-30T11:41:53;6.45;;;3.75;;
82722;SDS011;72450;42.008;21.356;2024-01-30T11:44:20;7.53;;;3.80;;
82722;SDS011;72450;42.008;21.356;2024-01-30T11:46:49;7.70;;;5.60;;
82722;SDS011;72450;42.008;21.356;2024-01-30T11:49:15;7.15;;;3.50;;
82722;SDS011;72450;42.008;21.356;2024-01-30T11:51:47;6.35;;;4.22;;
82722;SDS011;72450;42.008;21.356;2024-01-30T11:54:14;6.03;;;4.22;;
82722;SDS011;72450;42.008;21.356;2024-01-30T11:56:41;5.70;;;3.45;;
82722;SDS011;72450;42.008;21.356;2024-01-30T11:59:08;8.60;;;4.30;;
82722;SDS011;72450;42.008;21.356;2024-01-30T12:01:34;6.15;;;3.80;;
82722;SDS011;72450;42.008;21.356;2024-01-30T12:04:00;5.88;;;4.22;;
82722;SDS011;72450;42.008;21.356;2024-01-30T12:06:28;7.25;;;4.93;;
82722;SDS011;72450;42.008;21.356;2024-01-30T12:08:57;8.00;;;3.90;;
82722;SDS011;72450;42.008;21.356;2024-01-30T12:11:24;5.25;;;3.65;;
82722;SDS011;72450;42.008;21.356;2024-01-30T12:13:53;6.43;;;3.42;;
82722;SDS011;72450;42.008;21.356;2024-01-30T12:16:19;12.73;;;5.95;;
82722;SDS011;72450;42.008;21.356;2024-01-30T12:18:46;14.52;;;5.90;;
82722;SDS011;72450;42.008;21.356;2024-01-30T12:21:12;8.32;;;4.85;;
82722;SDS011;72450;42.008;21.356;2024-01-30T12:23:38;6.25;;;3.75;;
82722;SDS011;72450;42.008;21.356;2024-01-30T12:26:04;11.95;;;5.43;;
82722;SDS011;72450;42.008;21.356;2024-01-30T12:28:32;9.93;;;5.00;;
82722;SDS011;72450;42.008;21.356;2024-01-30T12:31:02;7.75;;;5.68;;
82722;SDS011;72450;42.008;21.356;2024-01-30T12:33:28;5.82;;;3.65;;
82722;SDS011;72450;42.008;21.356;2024-01-30T12:35:55;6.40;;;3.70;;
82722;SDS011;72450;42.008;21.356;2024-01-30T12:38:22;5.55;;;3.33;;
82722;SDS011;72450;42.008;21.356;2024-01-30T12:40:49;5.20;;;3.10;;
82722;SDS011;72450;42.008;21.356;2024-01-30T12:43:15;5.30;;;3.17;;
82722;SDS011;72450;42.008;21.356;2024-01-30T12:45:41;7.68;;;4.05;;
82722;SDS011;72450;42.008;21.356;2024-01-30T12:48:08;8.30;;;4.63;;
82722;SDS011;72450;42.008;21.356;2024-01-30T12:53:01;6.45;;;3.97;;
82722;SDS011;72450;42.008;21.356;2024-01-30T12:55:27;9.90;;;3.67;;
82722;SDS011;72450;42.008;21.356;2024-01-30T12:57:54;9.73;;;4.65;;
82722;SDS011;72450;42.008;21.356;2024-01-30T13:02:47;7.47;;;3.55;;
82722;SDS011;72450;42.008;21.356;2024-01-30T13:05:13;11.90;;;7.40;;
82722;SDS011;72450;42.008;21.356;2024-01-30T13:07:39;8.50;;;4.82;;
82722;SDS011;72450;42.008;21.356;2024-01-30T13:10:05;8.25;;;4.97;;
82722;SDS011;72450;42.008;21.356;2024-01-30T13:12:31;6.75;;;3.90;;
82722;SDS011;72450;42.008;21.356;2024-01-30T13:14:58;11.95;;;6.43;;
82722;SDS011;72450;42.008;21.356;2024-01-30T13:17:26;7.72;;;5.25;;
82722;SDS011;72450;42.008;21.356;2024-01-30T13:19:52;6.97;;;5.35;;
82722;SDS011;72450;42.008;21.356;2024-01-30T13:22:19;6.50;;;4.35;;
82722;SDS011;72450;42.008;21.356;2024-01-30T13:24:46;10.35;;;4.63;;
82722;SDS011;72450;42.008;21.356;2024-01-30T13:27:13;6.82;;;4.40;;
82722;SDS011;72450;42.008;21.356;2024-01-30T13:29:39;7.38;;;4.78;;
82722;SDS011;72450;42.008;21.356;2024-01-30T13:32:05;6.30;;;3.90;;
82722;SDS011;72450;42.008;21.356;2024-01-30T13:34:31;4.50;;;2.92;;
82722;SDS011;72450;42.008;21.356;2024-01-30T13:36:57;5.57;;;3.33;;
82722;SDS011;72450;42.008;21.356;2024-01-30T13:39:23;6.03;;;3.70;;
82722;SDS011;72450;42.008;21.356;2024-01-30T13:41:50;6.40;;;3.70;;
82722;SDS011;72450;42.008;21.356;2024-01-30T13:44:16;6.97;;;4.32;;
82722;SDS011;72450;42.008;21.356;2024-01-30T13:46:43;6.53;;;4.10;;
82722;SDS011;72450;42.008;21.356;2024-01-30T13:49:09;6.95;;;4.13;;
82722;SDS011;72450;42.008;21.356;2024-01-30T13:51:35;5.68;;;3.70;;
82722;SDS011;72450;42.008;21.356;2024-01-30T13:54:01;7.30;;;4.03;;
82722;SDS011;72450;42.008;21.356;2024-01-30T13:56:27;8.05;;;3.97;;
82722;SDS011;72450;42.008;21.356;2024-01-30T13:58:55;8.55;;;4.03;;
82722;SDS011;72450;42.008;21.356;2024-01-30T14:01:21;16.48;;;6.32;;
82722;SDS011;72450;42.008;21.356;2024-01-30T14:03:48;8.82;;;5.03;;
82722;SDS011;72450;42.008;21.356;2024-01-30T14:06:14;4.28;;;2.50;;
82722;SDS011;72450;42.008;21.356;2024-01-30T14:08:40;8.10;;;4.22;;
82722;SDS011;72450;42.008;21.356;2024-01-30T14:11:06;6.50;;;2.83;;
82722;SDS011;72450;42.008;21.356;2024-01-30T14:13:32;6.05;;;3.70;;
82722;SDS011;72450;42.008;21.356;2024-01-30T14:15:58;5.63;;;3.75;;
82722;SDS011;72450;42.008;21.356;2024-01-30T14:18:24;6.55;;;3.53;;
82722;SDS011;72450;42.008;21.356;2024-01-30T14:20:51;5.45;;;3.53;;
82722;SDS011;72450;42.008;21.356;2024-01-30T14:23:17;6.15;;;4.22;;
82722;SDS011;72450;42.008;21.356;2024-01-30T14:25:43;7.35;;;3.97;;
82722;SDS011;72450;42.008;21.356;2024-01-30T14:28:09;9.43;;;5.47;;